Argonia, KS

5:19 PM CST on February 05, 2016 (GMT -0600)
farm | | Change Station
CLOSE
Current Station
Personal Weather Station
Location: Wellington, KS
Elevation: 1191 ft
Nearby Weather Stations

Elev 1191 ft 37.14 °N, 97.54 °W | Updated 7 minutes ago

Partly Cloudy
Partly Cloudy
52.2 °F
Feels Like 52.2 °F
N
4.7
Wind Variable Wind from SSE

Today
High -- | Low -- °F
--% Chance of Precip.
Yesterday
High -- | Low -- °F
Precip. -- in
Pressure 30.27 in
Visibility 10.0 miles
Clouds Scattered Clouds 12000 ft
Mostly Cloudy 15000 ft
Mostly Cloudy 20000 ft
Dew Point 31 °F
Humidity 44%
Rainfall 0.00 in
Snow Depth Not available.
7:30 AM 5:59 PM
Waning Crescent, 9% visible
METAR KICT 052253Z 25004KT 10SM SCT120 BKN150 BKN200 10/M03 A3024 RMK AO2 SLP248 T01001028
Pressure 30.27 in
Visibility 10.0 miles
Clouds Scattered Clouds 12000 ft
Mostly Cloudy 15000 ft
Mostly Cloudy 20000 ft
Dew Point 31 °F
Humidity 44%
Rainfall 0.00 in
Snow Depth Not available.
7:30 AM 5:59 PM
Waning Crescent, 9% visible
METAR KICT 052253Z 25004KT 10SM SCT120 BKN150 BKN200 10/M03 A3024 RMK AO2 SLP248 T01001028

10-Day Weather Forecast

Almanac

Astronomy

Feb. 05, 2016 Rise Set
Actual Time
Civil Twilight
Nautical Twilight
Astronomical Twilight
Moon
Length of Visible Light
Length of Day
Tomorrow will be .
, % of the Moon is Illuminated

Today's Extremes

State Highs State Lows

Community

WunderPhotos

Upload Photos

1,890,881 photos uploaded!

WunderBlog® & News

Nearby

Air Quality

  Air Quality AQ Index Pollutant
Not available.

Snow Depth

Station Depth Elevation

Earthquake Activity

City Distance Mag. Time & Date
Minimum magnitude displayed is 2.5.

Coastal Water Temperatures

Place Temperature

Stations

Nearby Weather Stations

Station Location Temp. Windchill Dew Point Humidity Wind Precip. Elev Updated Type
                   

Watches & Warnings

There are currently no watches in effect.